Abisko, Sweden

4:54 AM CEST on July 24, 2014 (GMT +0200)
Bjørnfjell 520moh (INORDLAN37) Elev 1706 ft | 68.44 °N, 18.07 °E | Change Station

Current weather conditions updated 6 minutes ago

Scattered Clouds
Scattered Clouds
57.7 °F
Feels Like 57.7 °F
N
3.0
Wind Variable Wind from NW
Gusts 4.0 mph

Today is forecast to be nearly the same temperature as yesterday.

Today
High -- | Low -- °F
--% Chance of Precip.
Yesterday
High -- | Low -- °F
Precip. -- in
2:00 AM 11:35 PM
Waning Crescent, 7% visible
Pressure 30.27 in
Visibility 6.2 miles
Clouds Few 5000 ft
Scattered Clouds 7000 ft
Dew Point 52 °F
Humidity 81%
Rainfall 0.00 in
Snow Depth Not available.
UV 0 out of 12
Pollen Not available.
Air Quality Not available.
Flu Activity Not available.
METAR ENDU 240150Z VRB01KT 9999 VCFG FEW050 SCT070 14/12 Q1025

More Conditions Fewer Conditions

Pressure 30.27 in
Visibility 6.2 miles
Clouds Few 5000 ft
Scattered Clouds 7000 ft
Dew Point 52 °F
Humidity 81%
Rainfall 0.00 in
Snow Depth Not available.
UV 0 out of 12
Pollen Not available.
Air Quality Not available.
Flu Activity Not available.
METAR ENDU 240150Z VRB01KT 9999 VCFG FEW050 SCT070 14/12 Q1025

More Conditions Fewer Conditions

10-Day Weather Forecast

Almanac

Astronomy

Jul. 24, 2014 Rise Set
Actual Time 2:00 AM CEST 11:35 PM CEST
Civil Twilight Sun does not rise Sun does not rise
Nautical Twilight Sun does not rise Sun does not rise
Astronomical Twilight Sun does not rise Sun does not rise
Moon 12:32 AM CEST 8:54 PM CEST
Length of Visible Light 24h 00m
Length of Day
21h 34m
Tomorrow will be 14m 59s shorter.
Waning Crescent, 7% of the Moon is Illuminated
Jul 23
Waning Crescent
Jul 26
New
Aug 3
First Quarter
Aug 10
Full
Aug 17
Last Quarter

Yesterday's Extremes

Country Highs Country Lows

Community

WunderPhotos

Upload Photos

1,736,864 photos uploaded!

Nearby

Snow Depth

Not available.

Earthquake Activity

City Distance Mag. Time & Date
No recent earthquake activity has been reported nearby.
Minimum magnitude displayed is 2.5.

Coastal Water Temperatures

Place Temperature
No Stations Reporting

Nearby Weather Stations

Station Location Temp. Dew Point Humidity Wind Precip. Elev Updated Type
Bjørnfjell 520moh, Riksgrensen 57.7 °F 52 °F 81% NW  at  3.0 mph 0.00 in / hr 1706 ft 4:48 AM CEST Normal
Bardu, Bardu 55.5 °F 52 °F 87% NE  at  1.0 mph 0.00 in / hr 1663 ft 4:45 AM CEST Normal
STF Abisko, Abisko 59.3 °F 50 °F 70% West  at  2.0 mph - / hr 2985 ft 4:43 AM CEST Normal

Show More Stations Show Fewer Stations